sensor_id;sensor_type;location;lat;lon;timestamp;temperature;humidity
56538;DHT22;42435;53.292;6.000;2022-12-18T00:00:47;-3274.80;84.40
56538;DHT22;42435;53.292;6.000;2022-12-18T00:03:14;-3274.80;84.40
56538;DHT22;42435;53.292;6.000;2022-12-18T00:05:52;-3274.70;84.40
56538;DHT22;42435;53.292;6.000;2022-12-18T00:08:18;-3274.80;84.50
56538;DHT22;42435;53.292;6.000;2022-12-18T00:10:45;-3274.80;84.40
56538;DHT22;42435;53.292;6.000;2022-12-18T00:13:12;-3274.70;84.40
56538;DHT22;42435;53.292;6.000;2022-12-18T00:15:39;-3274.70;84.40
56538;DHT22;42435;53.292;6.000;2022-12-18T00:18:05;-3274.70;84.40
56538;DHT22;42435;53.292;6.000;2022-12-18T00:20:35;-3274.70;84.50
56538;DHT22;42435;53.292;6.000;2022-12-18T00:23:01;-3274.70;84.50
56538;DHT22;42435;53.292;6.000;2022-12-18T00:25:26;-3274.70;84.50
56538;DHT22;42435;53.292;6.000;2022-12-18T00:27:52;-3274.70;84.50
56538;DHT22;42435;53.292;6.000;2022-12-18T00:30:18;-3274.70;84.50
56538;DHT22;42435;53.292;6.000;2022-12-18T00:32:44;-3274.70;84.60
56538;DHT22;42435;53.292;6.000;2022-12-18T00:35:09;-3274.70;84.50
56538;DHT22;42435;53.292;6.000;2022-12-18T00:37:35;-3274.70;84.50
56538;DHT22;42435;53.292;6.000;2022-12-18T00:40:01;-3274.80;84.50
56538;DHT22;42435;53.292;6.000;2022-12-18T00:42:26;-3274.70;84.60
56538;DHT22;42435;53.292;6.000;2022-12-18T00:45:10;-3274.70;84.50
56538;DHT22;42435;53.292;6.000;2022-12-18T00:47:36;-3274.70;84.50
56538;DHT22;42435;53.292;6.000;2022-12-18T00:50:02;-3274.70;84.50
56538;DHT22;42435;53.292;6.000;2022-12-18T00:52:28;-3274.70;84.50
56538;DHT22;42435;53.292;6.000;2022-12-18T00:54:53;-3274.70;84.40
56538;DHT22;42435;53.292;6.000;2022-12-18T00:57:19;-3274.70;84.30
56538;DHT22;42435;53.292;6.000;2022-12-18T00:59:44;-3274.60;84.30
56538;DHT22;42435;53.292;6.000;2022-12-18T01:02:10;-3274.60;84.30
56538;DHT22;42435;53.292;6.000;2022-12-18T01:04:36;-3274.60;84.30
56538;DHT22;42435;53.292;6.000;2022-12-18T01:07:01;-3274.60;84.40
56538;DHT22;42435;53.292;6.000;2022-12-18T01:09:27;-3274.60;84.40
56538;DHT22;42435;53.292;6.000;2022-12-18T01:11:53;-3274.60;84.40
56538;DHT22;42435;53.292;6.000;2022-12-18T01:14:18;-3274.50;84.30
56538;DHT22;42435;53.292;6.000;2022-12-18T01:16:44;-3274.50;84.40
56538;DHT22;42435;53.292;6.000;2022-12-18T01:19:09;-3274.50;84.30
56538;DHT22;42435;53.292;6.000;2022-12-18T01:21:35;-3274.50;84.40
56538;DHT22;42435;53.292;6.000;2022-12-18T01:24:01;-3274.50;84.40
56538;DHT22;42435;53.292;6.000;2022-12-18T01:26:27;-3274.50;84.40
56538;DHT22;42435;53.292;6.000;2022-12-18T01:28:55;-3274.50;84.40
56538;DHT22;42435;53.292;6.000;2022-12-18T01:31:32;-3274.50;84.40
56538;DHT22;42435;53.292;6.000;2022-12-18T01:34:00;-3274.50;84.40
56538;DHT22;42435;53.292;6.000;2022-12-18T01:36:28;-3274.50;84.40
56538;DHT22;42435;53.292;6.000;2022-12-18T01:38:55;-3274.40;84.30
56538;DHT22;42435;53.292;6.000;2022-12-18T01:41:24;-3274.40;84.30
56538;DHT22;42435;53.292;6.000;2022-12-18T01:43:57;-3274.40;84.30
56538;DHT22;42435;53.292;6.000;2022-12-18T01:46:24;-3274.40;84.30
56538;DHT22;42435;53.292;6.000;2022-12-18T01:48:55;-3274.40;84.30
56538;DHT22;42435;53.292;6.000;2022-12-18T01:51:22;-3274.40;84.30
56538;DHT22;42435;53.292;6.000;2022-12-18T01:53:48;-3274.40;84.40
56538;DHT22;42435;53.292;6.000;2022-12-18T01:56:19;-3274.40;84.40
56538;DHT22;42435;53.292;6.000;2022-12-18T01:58:56;-3274.40;84.40
56538;DHT22;42435;53.292;6.000;2022-12-18T02:01:24;-3274.30;84.30
56538;DHT22;42435;53.292;6.000;2022-12-18T02:03:50;-3274.30;84.30
56538;DHT22;42435;53.292;6.000;2022-12-18T02:06:32;-3274.30;84.30
56538;DHT22;42435;53.292;6.000;2022-12-18T02:09:14;-3274.30;84.40
56538;DHT22;42435;53.292;6.000;2022-12-18T02:12:16;-3274.20;84.40
56538;DHT22;42435;53.292;6.000;2022-12-18T02:14:58;-3274.20;84.40
56538;DHT22;42435;53.292;6.000;2022-12-18T02:17:43;-3274.20;84.30
56538;DHT22;42435;53.292;6.000;2022-12-18T02:20:18;-3274.20;84.30
56538;DHT22;42435;53.292;6.000;2022-12-18T02:23:21;-3274.10;84.20
56538;DHT22;42435;53.292;6.000;2022-12-18T02:26:10;-3274.10;84.30
56538;DHT22;42435;53.292;6.000;2022-12-18T02:28:46;-3274.00;84.20
56538;DHT22;42435;53.292;6.000;2022-12-18T02:31:17;-3274.00;84.20
56538;DHT22;42435;53.292;6.000;2022-12-18T02:33:48;-3274.00;84.20
56538;DHT22;42435;53.292;6.000;2022-12-18T02:36:16;-3274.00;84.30
56538;DHT22;42435;53.292;6.000;2022-12-18T02:38:43;-3273.90;84.20
56538;DHT22;42435;53.292;6.000;2022-12-18T02:41:10;-3273.90;84.20
56538;DHT22;42435;53.292;6.000;2022-12-18T02:43:36;-3273.90;84.30
56538;DHT22;42435;53.292;6.000;2022-12-18T02:48:57;-3273.90;84.30
56538;DHT22;42435;53.292;6.000;2022-12-18T02:51:37;-3273.80;84.30
56538;DHT22;42435;53.292;6.000;2022-12-18T02:54:13;-3273.90;84.30
56538;DHT22;42435;53.292;6.000;2022-12-18T02:57:13;-3273.80;84.30
56538;DHT22;42435;53.292;6.000;2022-12-18T02:59:56;-3273.80;84.30
56538;DHT22;42435;53.292;6.000;2022-12-18T03:02:39;-3273.80;84.30
56538;DHT22;42435;53.292;6.000;2022-12-18T03:07:56;-3273.80;84.30
56538;DHT22;42435;53.292;6.000;2022-12-18T03:10:27;-3273.80;84.30
56538;DHT22;42435;53.292;6.000;2022-12-18T03:13:06;-3273.80;84.30
56538;DHT22;42435;53.292;6.000;2022-12-18T03:15:48;-3273.70;84.30
56538;DHT22;42435;53.292;6.000;2022-12-18T03:18:24;-3273.70;84.40
56538;DHT22;42435;53.292;6.000;2022-12-18T03:20:50;-3273.70;84.40
56538;DHT22;42435;53.292;6.000;2022-12-18T03:23:22;-3273.70;84.30
56538;DHT22;42435;53.292;6.000;2022-12-18T03:25:54;-3273.70;84.30
56538;DHT22;42435;53.292;6.000;2022-12-18T03:28:22;-3273.60;84.30
56538;DHT22;42435;53.292;6.000;2022-12-18T03:30:54;-3273.60;84.30
56538;DHT22;42435;53.292;6.000;2022-12-18T03:33:27;-3273.60;84.30
56538;DHT22;42435;53.292;6.000;2022-12-18T03:35:55;-3273.60;84.30
56538;DHT22;42435;53.292;6.000;2022-12-18T03:38:21;-3273.60;84.30
56538;DHT22;42435;53.292;6.000;2022-12-18T03:40:59;-3273.60;84.30
56538;DHT22;42435;53.292;6.000;2022-12-18T03:46:05;-3273.60;84.20
56538;DHT22;42435;53.292;6.000;2022-12-18T03:48:38;-3273.50;84.20
56538;DHT22;42435;53.292;6.000;2022-12-18T03:51:11;-3273.50;84.20
56538;DHT22;42435;53.292;6.000;2022-12-18T03:53:47;-3273.40;84.10
56538;DHT22;42435;53.292;6.000;2022-12-18T03:56:16;-3273.40;84.20
56538;DHT22;42435;53.292;6.000;2022-12-18T03:58:43;-3273.40;84.20
56538;DHT22;42435;53.292;6.000;2022-12-18T04:01:13;-3273.40;84.10
56538;DHT22;42435;53.292;6.000;2022-12-18T04:03:41;-3273.40;84.20
56538;DHT22;42435;53.292;6.000;2022-12-18T04:06:08;-3273.40;84.10
56538;DHT22;42435;53.292;6.000;2022-12-18T04:08:34;-3273.30;84.20
56538;DHT22;42435;53.292;6.000;2022-12-18T04:11:01;-3273.30;84.10
56538;DHT22;42435;53.292;6.000;2022-12-18T04:13:35;-3273.30;84.10
56538;DHT22;42435;53.292;6.000;2022-12-18T04:16:01;-3273.30;84.10
56538;DHT22;42435;53.292;6.000;2022-12-18T04:18:26;-3273.30;84.10
56538;DHT22;42435;53.292;6.000;2022-12-18T04:20:52;-3273.20;84.10
56538;DHT22;42435;53.292;6.000;2022-12-18T04:23:18;-3273.20;84.10
56538;DHT22;42435;53.292;6.000;2022-12-18T04:25:43;-3273.20;84.10
56538;DHT22;42435;53.292;6.000;2022-12-18T04:28:09;-3273.10;84.10
56538;DHT22;42435;53.292;6.000;2022-12-18T04:30:34;-3273.10;84.10
56538;DHT22;42435;53.292;6.000;2022-12-18T04:33:00;-3273.10;84.10
56538;DHT22;42435;53.292;6.000;2022-12-18T04:35:26;-3273.10;84.10
56538;DHT22;42435;53.292;6.000;2022-12-18T04:37:51;-3273.10;84.10
56538;DHT22;42435;53.292;6.000;2022-12-18T04:40:17;-3273.10;84.10
56538;DHT22;42435;53.292;6.000;2022-12-18T04:42:43;-3273.10;84.10
56538;DHT22;42435;53.292;6.000;2022-12-18T04:45:09;-3273.10;84.10
56538;DHT22;42435;53.292;6.000;2022-12-18T04:47:34;-3273.00;84.10
56538;DHT22;42435;53.292;6.000;2022-12-18T04:50:00;-3273.10;84.10
56538;DHT22;42435;53.292;6.000;2022-12-18T04:52:25;-3273.00;84.10
56538;DHT22;42435;53.292;6.000;2022-12-18T04:54:51;-3273.00;84.10
56538;DHT22;42435;53.292;6.000;2022-12-18T04:57:16;-3273.00;84.10
56538;DHT22;42435;53.292;6.000;2022-12-18T04:59:43;-3273.00;84.10
56538;DHT22;42435;53.292;6.000;2022-12-18T05:02:09;-3273.00;84.10
56538;DHT22;42435;53.292;6.000;2022-12-18T05:04:35;-3273.00;84.10
56538;DHT22;42435;53.292;6.000;2022-12-18T05:07:00;-3273.00;84.10
56538;DHT22;42435;53.292;6.000;2022-12-18T05:09:26;-3273.00;84.10
56538;DHT22;42435;53.292;6.000;2022-12-18T05:11:51;-3273.00;84.10
56538;DHT22;42435;53.292;6.000;2022-12-18T05:14:17;-3272.90;84.10
56538;DHT22;42435;53.292;6.000;2022-12-18T05:16:43;-3272.90;84.10
56538;DHT22;42435;53.292;6.000;2022-12-18T05:19:08;-3272.90;84.10
56538;DHT22;42435;53.292;6.000;2022-12-18T05:21:34;-3272.90;84.10
56538;DHT22;42435;53.292;6.000;2022-12-18T05:23:59;-3272.90;84.10
56538;DHT22;42435;53.292;6.000;2022-12-18T05:26:25;-3272.90;84.10
56538;DHT22;42435;53.292;6.000;2022-12-18T05:28:50;-3272.90;84.10
56538;DHT22;42435;53.292;6.000;2022-12-18T05:31:16;-3272.90;84.10
56538;DHT22;42435;53.292;6.000;2022-12-18T05:33:42;-3272.90;84.10
56538;DHT22;42435;53.292;6.000;2022-12-18T05:36:09;-3272.90;84.10
56538;DHT22;42435;53.292;6.000;2022-12-18T05:38:36;-3272.90;84.10
56538;DHT22;42435;53.292;6.000;2022-12-18T05:41:04;-3272.90;84.10
56538;DHT22;42435;53.292;6.000;2022-12-18T05:43:30;-3272.90;84.10
56538;DHT22;42435;53.292;6.000;2022-12-18T05:45:55;-3272.90;84.10
56538;DHT22;42435;53.292;6.000;2022-12-18T05:48:22;-3272.90;84.10
56538;DHT22;42435;53.292;6.000;2022-12-18T05:50:49;-3272.80;84.00
56538;DHT22;42435;53.292;6.000;2022-12-18T05:53:17;-3272.80;84.00
56538;DHT22;42435;53.292;6.000;2022-12-18T05:55:44;-3272.80;84.00
56538;DHT22;42435;53.292;6.000;2022-12-18T05:58:11;-3272.80;83.90
56538;DHT22;42435;53.292;6.000;2022-12-18T06:00:39;-3272.80;83.90
56538;DHT22;42435;53.292;6.000;2022-12-18T06:03:07;-3272.80;83.90
56538;DHT22;42435;53.292;6.000;2022-12-18T06:05:40;-3272.80;83.90
56538;DHT22;42435;53.292;6.000;2022-12-18T06:08:07;-3272.80;83.80
56538;DHT22;42435;53.292;6.000;2022-12-18T06:10:32;-3272.80;83.80
56538;DHT22;42435;53.292;6.000;2022-12-18T06:12:59;-3272.80;83.80
56538;DHT22;42435;53.292;6.000;2022-12-18T06:15:25;-3272.80;83.70
56538;DHT22;42435;53.292;6.000;2022-12-18T06:17:51;-3272.70;83.70
56538;DHT22;42435;53.292;6.000;2022-12-18T06:20:17;-3272.70;83.70
56538;DHT22;42435;53.292;6.000;2022-12-18T06:22:42;-3272.70;83.70
56538;DHT22;42435;53.292;6.000;2022-12-18T06:25:08;-3272.70;83.60
56538;DHT22;42435;53.292;6.000;2022-12-18T06:27:34;-3272.70;83.60
56538;DHT22;42435;53.292;6.000;2022-12-18T06:30:00;-3272.70;83.60
56538;DHT22;42435;53.292;6.000;2022-12-18T06:32:26;-3272.70;83.50
56538;DHT22;42435;53.292;6.000;2022-12-18T06:34:52;-3272.60;83.50
56538;DHT22;42435;53.292;6.000;2022-12-18T06:37:19;-3272.60;83.50
56538;DHT22;42435;53.292;6.000;2022-12-18T06:39:44;-3272.70;83.50
56538;DHT22;42435;53.292;6.000;2022-12-18T06:42:10;-3272.60;83.50
56538;DHT22;42435;53.292;6.000;2022-12-18T06:44:35;-3272.60;83.50
56538;DHT22;42435;53.292;6.000;2022-12-18T06:47:01;-3272.60;83.50
56538;DHT22;42435;53.292;6.000;2022-12-18T06:49:26;-3272.60;83.40
56538;DHT22;42435;53.292;6.000;2022-12-18T06:51:52;-3272.60;83.40
56538;DHT22;42435;53.292;6.000;2022-12-18T06:54:18;-3272.60;83.40
56538;DHT22;42435;53.292;6.000;2022-12-18T06:56:45;-3272.60;83.40
56538;DHT22;42435;53.292;6.000;2022-12-18T06:59:11;-3272.60;83.30
56538;DHT22;42435;53.292;6.000;2022-12-18T07:01:37;-3272.60;83.30
56538;DHT22;42435;53.292;6.000;2022-12-18T07:04:03;-3272.60;83.30
56538;DHT22;42435;53.292;6.000;2022-12-18T07:06:29;-3272.60;83.30
56538;DHT22;42435;53.292;6.000;2022-12-18T07:08:54;-3272.60;83.20
56538;DHT22;42435;53.292;6.000;2022-12-18T07:11:20;-3272.60;83.20
56538;DHT22;42435;53.292;6.000;2022-12-18T07:13:46;-3272.60;83.20
56538;DHT22;42435;53.292;6.000;2022-12-18T07:16:15;-3272.50;83.10
56538;DHT22;42435;53.292;6.000;2022-12-18T07:18:41;-3272.50;83.10
56538;DHT22;42435;53.292;6.000;2022-12-18T07:21:10;-3272.50;83.10
56538;DHT22;42435;53.292;6.000;2022-12-18T07:23:36;-3272.50;83.10
56538;DHT22;42435;53.292;6.000;2022-12-18T07:26:10;-3272.50;83.10
56538;DHT22;42435;53.292;6.000;2022-12-18T07:28:40;-3272.50;83.00
56538;DHT22;42435;53.292;6.000;2022-12-18T07:31:14;-3272.50;83.00
56538;DHT22;42435;53.292;6.000;2022-12-18T07:33:40;-3272.50;83.00
56538;DHT22;42435;53.292;6.000;2022-12-18T07:36:07;-3272.50;83.00
56538;DHT22;42435;53.292;6.000;2022-12-18T07:38:34;-3272.50;83.00
56538;DHT22;42435;53.292;6.000;2022-12-18T07:41:05;-3272.50;82.90
56538;DHT22;42435;53.292;6.000;2022-12-18T07:43:31;-3272.60;82.90
56538;DHT22;42435;53.292;6.000;2022-12-18T07:45:57;-3272.60;82.90
56538;DHT22;42435;53.292;6.000;2022-12-18T07:48:22;-3272.60;82.80
56538;DHT22;42435;53.292;6.000;2022-12-18T07:50:48;-3272.60;82.80
56538;DHT22;42435;53.292;6.000;2022-12-18T07:53:16;-3272.60;82.80
56538;DHT22;42435;53.292;6.000;2022-12-18T07:55:42;-3272.60;82.70
56538;DHT22;42435;53.292;6.000;2022-12-18T07:58:08;-3272.60;82.70
56538;DHT22;42435;53.292;6.000;2022-12-18T08:00:34;-3272.60;82.70
56538;DHT22;42435;53.292;6.000;2022-12-18T08:03:00;-3272.60;82.70
56538;DHT22;42435;53.292;6.000;2022-12-18T08:05:26;-3272.60;82.70
56538;DHT22;42435;53.292;6.000;2022-12-18T08:07:52;-3272.60;82.60
56538;DHT22;42435;53.292;6.000;2022-12-18T08:10:18;-3272.60;82.60
56538;DHT22;42435;53.292;6.000;2022-12-18T08:12:44;-3272.60;82.50
56538;DHT22;42435;53.292;6.000;2022-12-18T08:15:10;-3272.60;82.50
56538;DHT22;42435;53.292;6.000;2022-12-18T08:17:36;-3272.60;82.50
56538;DHT22;42435;53.292;6.000;2022-12-18T08:20:02;-3272.70;82.50
56538;DHT22;42435;53.292;6.000;2022-12-18T08:22:28;-3272.70;82.40
56538;DHT22;42435;53.292;6.000;2022-12-18T08:24:54;-3272.70;82.40
56538;DHT22;42435;53.292;6.000;2022-12-18T08:27:20;-3272.70;82.40
56538;DHT22;42435;53.292;6.000;2022-12-18T08:29:45;-3272.70;82.40
56538;DHT22;42435;53.292;6.000;2022-12-18T08:32:11;-3272.70;82.30
56538;DHT22;42435;53.292;6.000;2022-12-18T08:34:36;-3272.70;82.30
56538;DHT22;42435;53.292;6.000;2022-12-18T08:37:02;-3272.80;82.30
56538;DHT22;42435;53.292;6.000;2022-12-18T08:39:28;-3272.80;82.30
56538;DHT22;42435;53.292;6.000;2022-12-18T08:41:54;-3272.80;82.20
56538;DHT22;42435;53.292;6.000;2022-12-18T08:44:39;-3272.80;82.20
56538;DHT22;42435;53.292;6.000;2022-12-18T08:47:08;-3272.90;82.20
56538;DHT22;42435;53.292;6.000;2022-12-18T08:49:34;-3272.90;82.20
56538;DHT22;42435;53.292;6.000;2022-12-18T08:52:03;-3273.00;82.20
56538;DHT22;42435;53.292;6.000;2022-12-18T08:54:30;-3273.00;82.20
56538;DHT22;42435;53.292;6.000;2022-12-18T08:56:57;-3273.10;82.20
56538;DHT22;42435;53.292;6.000;2022-12-18T08:59:22;-3273.10;82.20
56538;DHT22;42435;53.292;6.000;2022-12-18T09:01:49;-3273.20;82.20
56538;DHT22;42435;53.292;6.000;2022-12-18T09:04:16;-3273.30;82.10
56538;DHT22;42435;53.292;6.000;2022-12-18T09:06:41;-3273.30;82.10
56538;DHT22;42435;53.292;6.000;2022-12-18T09:09:08;-3273.40;82.10
56538;DHT22;42435;53.292;6.000;2022-12-18T09:11:34;-3273.50;82.10
56538;DHT22;42435;53.292;6.000;2022-12-18T09:14:00;-3273.60;82.00
56538;DHT22;42435;53.292;6.000;2022-12-18T09:16:28;-3273.70;82.00
56538;DHT22;42435;53.292;6.000;2022-12-18T09:18:57;-3273.70;81.90
56538;DHT22;42435;53.292;6.000;2022-12-18T09:21:29;-3273.80;81.90
56538;DHT22;42435;53.292;6.000;2022-12-18T09:23:55;-3273.90;81.90
56538;DHT22;42435;53.292;6.000;2022-12-18T09:26:22;-3274.00;81.90
56538;DHT22;42435;53.292;6.000;2022-12-18T09:28:48;-3274.10;81.80
56538;DHT22;42435;53.292;6.000;2022-12-18T09:31:14;-3274.10;81.80
56538;DHT22;42435;53.292;6.000;2022-12-18T09:33:40;-3274.30;81.80
56538;DHT22;42435;53.292;6.000;2022-12-18T09:36:08;-3274.40;81.70
56538;DHT22;42435;53.292;6.000;2022-12-18T09:38:34;-3274.50;81.70
56538;DHT22;42435;53.292;6.000;2022-12-18T09:43:51;-3274.70;81.40
56538;DHT22;42435;53.292;6.000;2022-12-18T09:46:26;-3274.80;81.30
56538;DHT22;42435;53.292;6.000;2022-12-18T09:48:55;-3274.80;81.20
56538;DHT22;42435;53.292;6.000;2022-12-18T09:54:41;-3275.00;80.80
56538;DHT22;42435;53.292;6.000;2022-12-18T09:57:14;-3275.00;80.70
56538;DHT22;42435;53.292;6.000;2022-12-18T09:59:41;-3275.10;80.70
56538;DHT22;42435;53.292;6.000;2022-12-18T10:02:15;-3275.10;80.60
56538;DHT22;42435;53.292;6.000;2022-12-18T10:04:42;-3275.20;80.50
56538;DHT22;42435;53.292;6.000;2022-12-18T10:07:19;-3275.20;80.60
56538;DHT22;42435;53.292;6.000;2022-12-18T10:10:01;-3275.20;80.60
56538;DHT22;42435;53.292;6.000;2022-12-18T10:15:45;-3275.50;80.60
56538;DHT22;42435;53.292;6.000;2022-12-18T10:24:13;-3275.80;80.10
56538;DHT22;42435;53.292;6.000;2022-12-18T10:26:41;-3275.90;79.90
56538;DHT22;42435;53.292;6.000;2022-12-18T10:29:14;-3275.90;79.80
56538;DHT22;42435;53.292;6.000;2022-12-18T10:31:40;-3276.00;79.60
56538;DHT22;42435;53.292;6.000;2022-12-18T10:34:11;-3276.00;79.50
56538;DHT22;42435;53.292;6.000;2022-12-18T10:36:37;-3276.10;79.40
56538;DHT22;42435;53.292;6.000;2022-12-18T10:41:42;-3276.10;79.10
56538;DHT22;42435;53.292;6.000;2022-12-18T10:44:21;-3276.20;79.10
56538;DHT22;42435;53.292;6.000;2022-12-18T10:46:54;-3276.20;79.10
56538;DHT22;42435;53.292;6.000;2022-12-18T10:49:27;-3276.20;79.00
56538;DHT22;42435;53.292;6.000;2022-12-18T10:57:39;-3276.30;78.80
56538;DHT22;42435;53.292;6.000;2022-12-18T11:00:27;-3276.30;78.60
56538;DHT22;42435;53.292;6.000;2022-12-18T11:02:54;-3276.30;78.30
56538;DHT22;42435;53.292;6.000;2022-12-18T11:05:29;-3276.30;78.40
56538;DHT22;42435;53.292;6.000;2022-12-18T11:07:55;-3276.30;78.30
56538;DHT22;42435;53.292;6.000;2022-12-18T11:10:28;-3276.20;78.20
56538;DHT22;42435;53.292;6.000;2022-12-18T11:13:08;-3276.10;78.10
56538;DHT22;42435;53.292;6.000;2022-12-18T11:15:34;-3276.20;78.10
56538;DHT22;42435;53.292;6.000;2022-12-18T11:18:00;-3276.10;78.10
56538;DHT22;42435;53.292;6.000;2022-12-18T11:20:34;-3276.20;78.10
56538;DHT22;42435;53.292;6.000;2022-12-18T11:23:04;-3276.10;77.90
56538;DHT22;42435;53.292;6.000;2022-12-18T11:25:31;-3276.10;78.00
56538;DHT22;42435;53.292;6.000;2022-12-18T11:28:04;-3276.10;78.00
56538;DHT22;42435;53.292;6.000;2022-12-18T11:30:35;-3276.10;77.90
56538;DHT22;42435;53.292;6.000;2022-12-18T11:33:05;-3276.20;77.90
56538;DHT22;42435;53.292;6.000;2022-12-18T11:35:53;-3276.20;77.90
56538;DHT22;42435;53.292;6.000;2022-12-18T11:38:32;-3276.20;77.80
56538;DHT22;42435;53.292;6.000;2022-12-18T11:41:07;-3276.30;77.90
56538;DHT22;42435;53.292;6.000;2022-12-18T11:46:36;-3276.30;77.80
56538;DHT22;42435;53.292;6.000;2022-12-18T11:49:18;-3276.30;77.80
56538;DHT22;42435;53.292;6.000;2022-12-18T11:52:10;-3276.30;77.80
56538;DHT22;42435;53.292;6.000;2022-12-18T11:54:40;-3276.30;77.70
56538;DHT22;42435;53.292;6.000;2022-12-18T12:03:10;-3276.30;77.60
56538;DHT22;42435;53.292;6.000;2022-12-18T12:08:56;-3276.30;77.50
56538;DHT22;42435;53.292;6.000;2022-12-18T12:11:36;-3276.30;77.50
56538;DHT22;42435;53.292;6.000;2022-12-18T12:16:49;-3276.20;77.50
56538;DHT22;42435;53.292;6.000;2022-12-18T12:22:21;-3276.30;77.50
56538;DHT22;42435;53.292;6.000;2022-12-18T12:25:05;-3276.30;77.50
56538;DHT22;42435;53.292;6.000;2022-12-18T12:27:39;-3276.30;77.50
56538;DHT22;42435;53.292;6.000;2022-12-18T12:35:42;-3276.30;77.50
56538;DHT22;42435;53.292;6.000;2022-12-18T12:40:39;-3276.40;77.40
56538;DHT22;42435;53.292;6.000;2022-12-18T12:43:32;-3276.30;77.40
56538;DHT22;42435;53.292;6.000;2022-12-18T12:46:07;-3276.40;77.40
56538;DHT22;42435;53.292;6.000;2022-12-18T12:48:43;-3276.40;77.40
56538;DHT22;42435;53.292;6.000;2022-12-18T12:51:21;-3276.40;77.40
56538;DHT22;42435;53.292;6.000;2022-12-18T12:53:48;-3276.50;77.40
56538;DHT22;42435;53.292;6.000;2022-12-18T12:56:21;-3276.50;77.40
56538;DHT22;42435;53.292;6.000;2022-12-18T13:01:36;-3276.50;77.30
56538;DHT22;42435;53.292;6.000;2022-12-18T13:04:17;-3276.60;77.30
56538;DHT22;42435;53.292;6.000;2022-12-18T13:13:10;-3276.70;77.20
56538;DHT22;42435;53.292;6.000;2022-12-18T13:15:40;-3276.70;77.20
56538;DHT22;42435;53.292;6.000;2022-12-18T13:20:48;-3276.70;77.20
56538;DHT22;42435;53.292;6.000;2022-12-18T13:26:43;0.00;77.10
56538;DHT22;42435;53.292;6.000;2022-12-18T13:34:20;0.00;76.80
56538;DHT22;42435;53.292;6.000;2022-12-18T13:36:47;0.00;76.80
56538;DHT22;42435;53.292;6.000;2022-12-18T13:44:56;0.10;76.80
56538;DHT22;42435;53.292;6.000;2022-12-18T13:47:36;0.10;76.90
56538;DHT22;42435;53.292;6.000;2022-12-18T13:50:20;0.10;76.80
56538;DHT22;42435;53.292;6.000;2022-12-18T13:52:52;0.10;76.80
56538;DHT22;42435;53.292;6.000;2022-12-18T13:55:20;0.10;76.80
56538;DHT22;42435;53.292;6.000;2022-12-18T13:57:46;0.10;76.70
56538;DHT22;42435;53.292;6.000;2022-12-18T14:02:50;0.10;76.70
56538;DHT22;42435;53.292;6.000;2022-12-18T14:05:24;0.10;76.70
56538;DHT22;42435;53.292;6.000;2022-12-18T14:07:50;0.10;76.70
56538;DHT22;42435;53.292;6.000;2022-12-18T14:10:17;0.10;76.70
56538;DHT22;42435;53.292;6.000;2022-12-18T14:12:47;0.10;76.70
56538;DHT22;42435;53.292;6.000;2022-12-18T14:17:53;0.10;76.60
56538;DHT22;42435;53.292;6.000;2022-12-18T14:20:20;0.00;76.60
56538;DHT22;42435;53.292;6.000;2022-12-18T14:22:48;0.10;76.60
56538;DHT22;42435;53.292;6.000;2022-12-18T14:27:46;0.00;76.60
56538;DHT22;42435;53.292;6.000;2022-12-18T14:30:38;0.00;76.70
56538;DHT22;42435;53.292;6.000;2022-12-18T14:33:13;0.00;76.60
56538;DHT22;42435;53.292;6.000;2022-12-18T14:35:41;0.00;76.60
56538;DHT22;42435;53.292;6.000;2022-12-18T14:38:27;0.00;76.60
56538;DHT22;42435;53.292;6.000;2022-12-18T14:41:13;0.00;76.60
56538;DHT22;42435;53.292;6.000;2022-12-18T14:43:39;-3276.70;76.60
56538;DHT22;42435;53.292;6.000;2022-12-18T14:48:51;-3276.60;76.70
56538;DHT22;42435;53.292;6.000;2022-12-18T14:51:19;-3276.60;76.70
56538;DHT22;42435;53.292;6.000;2022-12-18T14:53:54;-3276.60;76.80
56538;DHT22;42435;53.292;6.000;2022-12-18T14:56:31;-3276.60;76.80
56538;DHT22;42435;53.292;6.000;2022-12-18T14:59:03;-3276.50;76.80
56538;DHT22;42435;53.292;6.000;2022-12-18T15:01:49;-3276.50;76.80
56538;DHT22;42435;53.292;6.000;2022-12-18T15:04:29;-3276.60;76.70
56538;DHT22;42435;53.292;6.000;2022-12-18T15:07:15;-3276.50;76.60
56538;DHT22;42435;53.292;6.000;2022-12-18T15:09:43;-3276.50;76.60
56538;DHT22;42435;53.292;6.000;2022-12-18T15:12:24;-3276.50;76.60
56538;DHT22;42435;53.292;6.000;2022-12-18T15:14:51;-3276.40;76.50
56538;DHT22;42435;53.292;6.000;2022-12-18T15:17:19;-3276.50;76.60
56538;DHT22;42435;53.292;6.000;2022-12-18T15:19:47;-3276.40;76.60
56538;DHT22;42435;53.292;6.000;2022-12-18T15:22:27;-3276.40;76.60
56538;DHT22;42435;53.292;6.000;2022-12-18T15:24:54;-3276.40;76.60
56538;DHT22;42435;53.292;6.000;2022-12-18T15:27:23;-3276.40;76.60
56538;DHT22;42435;53.292;6.000;2022-12-18T15:30:11;-3276.40;76.50
56538;DHT22;42435;53.292;6.000;2022-12-18T15:32:40;-3276.40;76.40
56538;DHT22;42435;53.292;6.000;2022-12-18T15:37:44;-3276.30;76.40
56538;DHT22;42435;53.292;6.000;2022-12-18T15:40:19;-3276.40;76.40
56538;DHT22;42435;53.292;6.000;2022-12-18T15:42:45;-3276.30;76.40
56538;DHT22;42435;53.292;6.000;2022-12-18T15:45:30;-3276.30;76.40
56538;DHT22;42435;53.292;6.000;2022-12-18T15:47:56;-3276.30;76.40
56538;DHT22;42435;53.292;6.000;2022-12-18T15:50:21;-3276.30;76.40
56538;DHT22;42435;53.292;6.000;2022-12-18T15:52:49;-3276.30;76.40
56538;DHT22;42435;53.292;6.000;2022-12-18T15:55:19;-3276.30;76.30
56538;DHT22;42435;53.292;6.000;2022-12-18T15:58:05;-3276.30;76.30
56538;DHT22;42435;53.292;6.000;2022-12-18T16:00:32;-3276.40;76.20
56538;DHT22;42435;53.292;6.000;2022-12-18T16:02:59;-3276.30;76.20
56538;DHT22;42435;53.292;6.000;2022-12-18T16:05:26;-3276.40;76.20
56538;DHT22;42435;53.292;6.000;2022-12-18T16:07:52;-3276.40;76.10
56538;DHT22;42435;53.292;6.000;2022-12-18T16:10:18;-3276.40;76.10
56538;DHT22;42435;53.292;6.000;2022-12-18T16:12:43;-3276.40;76.10
56538;DHT22;42435;53.292;6.000;2022-12-18T16:15:12;-3276.40;76.10
56538;DHT22;42435;53.292;6.000;2022-12-18T16:17:39;-3276.40;76.00
56538;DHT22;42435;53.292;6.000;2022-12-18T16:20:11;-3276.40;76.00
56538;DHT22;42435;53.292;6.000;2022-12-18T16:22:37;-3276.40;75.90
56538;DHT22;42435;53.292;6.000;2022-12-18T16:25:03;-3276.40;75.90
56538;DHT22;42435;53.292;6.000;2022-12-18T16:27:30;-3276.40;75.90
56538;DHT22;42435;53.292;6.000;2022-12-18T16:29:56;-3276.50;75.70
56538;DHT22;42435;53.292;6.000;2022-12-18T16:32:21;-3276.50;75.60
56538;DHT22;42435;53.292;6.000;2022-12-18T16:34:47;-3276.50;75.70
56538;DHT22;42435;53.292;6.000;2022-12-18T16:37:14;-3276.60;75.60
56538;DHT22;42435;53.292;6.000;2022-12-18T16:39:40;-3276.60;75.60
56538;DHT22;42435;53.292;6.000;2022-12-18T16:42:16;-3276.70;75.60